Time;durP1;ratioP1;P1;durP2;ratioP2;P2;SDS_P1;SDS_P2;PMS_P1;PMS_P2;Temp;Humidity;BMP_temperature;BMP_pressure;BME280_temperature;BME280_humidity;BME280_pressure;Samples;Min_cycle;Max_cycle;Signal;HPM_P1;HPM_P2
2021/12/28 00:01:44;;;;;;;15.47;13.17;;;;;;;;;;4935580;29;20202;-81
2021/12/28 00:04:11;;;;;;;15.27;12.60;;;;;;;;;;4935813;29;20258;-82
2021/12/28 00:06:40;;;;;;;15.43;13.17;;;;;;;;;;4935870;29;20202;-81
2021/12/28 00:09:08;;;;;;;15.43;12.67;;;;;;;;;;4935558;29;20230;-81
2021/12/28 00:11:35;;;;;;;14.13;12.67;;;;;;;;;;4935946;29;20237;-81
2021/12/28 00:14:04;;;;;;;13.50;12.07;;;;;;;;;;4935915;29;20199;-81
2021/12/28 00:17:58;;;;;;;13.40;11.43;;;;;;;;;;4935440;29;20203;-82
2021/12/28 00:19:21;;;;;;;13.10;11.60;;;;;;;;;;4935372;29;20198;-81
2021/12/28 00:21:52;;;;;;;13.40;12.00;;;;;;;;;;4935079;29;20270;-82
2021/12/28 00:24:20;;;;;;;15.50;12.23;;;;;;;;;;4935447;29;20202;-82
2021/12/28 00:26:53;;;;;;;14.43;11.87;;;;;;;;;;4935318;29;20585;-81
2021/12/28 00:29:24;;;;;;;13.00;11.60;;;;;;;;;;4935534;29;20187;-81
2021/12/28 00:31:52;;;;;;;13.53;12.13;;;;;;;;;;4935010;29;20324;-82
2021/12/28 00:34:19;;;;;;;14.23;12.53;;;;;;;;;;4935193;29;20203;-81
2021/12/28 00:36:46;;;;;;;13.53;11.40;;;;;;;;;;4935160;29;20203;-81
2021/12/28 00:39:15;;;;;;;12.30;11.10;;;;;;;;;;4935323;29;20203;-81
2021/12/28 00:41:42;;;;;;;12.17;10.43;;;;;;;;;;4935111;29;20316;-81
2021/12/28 00:44:10;;;;;;;9.87;8.83;;;;;;;;;;4935378;29;20254;-80
2021/12/28 00:46:37;;;;;;;10.97;9.97;;;;;;;;;;4935014;29;20195;-81
2021/12/28 00:49:04;;;;;;;12.07;10.90;;;;;;;;;;4935078;29;20198;-80
2021/12/28 00:51:32;;;;;;;11.03;9.93;;;;;;;;;;4934798;29;20277;-81
2021/12/28 00:53:59;;;;;;;11.63;10.53;;;;;;;;;;4935147;29;20672;-81
2021/12/28 00:56:28;;;;;;;13.27;11.47;;;;;;;;;;4934867;29;20667;-81
2021/12/28 00:58:55;;;;;;;13.60;12.30;;;;;;;;;;4934927;29;20265;-81
2021/12/28 01:01:22;;;;;;;13.03;11.80;;;;;;;;;;4934138;29;20242;-81
2021/12/28 01:03:49;;;;;;;12.53;11.20;;;;;;;;;;4935186;29;20202;-81
2021/12/28 01:06:17;;;;;;;14.00;12.57;;;;;;;;;;4934925;29;20209;-81
2021/12/28 01:08:44;;;;;;;14.80;13.33;;;;;;;;;;4934814;29;20238;-81
2021/12/28 01:11:11;;;;;;;14.73;13.23;;;;;;;;;;4934670;29;20254;-81
2021/12/28 01:13:40;;;;;;;15.13;13.53;;;;;;;;;;4934571;29;20258;-81
2021/12/28 01:16:08;;;;;;;14.47;12.43;;;;;;;;;;4934988;29;20203;-81
2021/12/28 01:18:35;;;;;;;11.53;10.40;;;;;;;;;;4934914;29;20205;-81
2021/12/28 01:21:03;;;;;;;11.50;10.37;;;;;;;;;;4934735;29;20277;-81
2021/12/28 01:23:30;;;;;;;11.73;10.30;;;;;;;;;;4934446;29;20278;-81
2021/12/28 01:25:57;;;;;;;12.60;11.40;;;;;;;;;;4934814;29;20198;-81
2021/12/28 01:28:25;;;;;;;11.07;10.07;;;;;;;;;;4934568;29;20293;-80
2021/12/28 01:30:54;;;;;;;14.53;11.17;;;;;;;;;;4935072;29;20307;-81
2021/12/28 01:33:21;;;;;;;12.63;11.23;;;;;;;;;;4934651;29;20327;-81
2021/12/28 01:35:50;;;;;;;11.87;10.60;;;;;;;;;;4934565;29;20241;-81
2021/12/28 01:38:17;;;;;;;11.07;10.00;;;;;;;;;;4934436;29;20207;-81
2021/12/28 01:40:45;;;;;;;11.90;10.53;;;;;;;;;;4934594;29;20639;-81
2021/12/28 01:43:16;;;;;;;13.00;10.27;;;;;;;;;;4934480;29;20664;-81
2021/12/28 01:45:47;;;;;;;14.90;11.20;;;;;;;;;;4935211;29;20235;-81
2021/12/28 01:48:19;;;;;;;11.97;10.70;;;;;;;;;;4934421;29;20211;-81
2021/12/28 01:50:47;;;;;;;13.30;10.90;;;;;;;;;;4934621;29;20242;-81
2021/12/28 01:53:15;;;;;;;13.30;11.90;;;;;;;;;;4934633;29;20199;-81
2021/12/28 01:55:44;;;;;;;12.53;10.27;;;;;;;;;;4934528;29;20664;-81
2021/12/28 01:58:12;;;;;;;12.73;11.40;;;;;;;;;;4934623;29;20257;-81
2021/12/28 02:00:40;;;;;;;14.93;12.57;;;;;;;;;;4934343;29;20198;-81
2021/12/28 02:03:09;;;;;;;12.30;11.17;;;;;;;;;;4934553;29;20277;-81
2021/12/28 02:05:39;;;;;;;14.10;12.60;;;;;;;;;;4934507;29;20298;-81
2021/12/28 02:08:06;;;;;;;15.67;11.77;;;;;;;;;;4934208;29;20265;-81
2021/12/28 02:10:34;;;;;;;13.60;11.90;;;;;;;;;;4934391;29;20266;-81
2021/12/28 02:13:01;;;;;;;14.37;12.87;;;;;;;;;;4937375;29;20293;-81
2021/12/28 02:15:29;;;;;;;18.17;14.97;;;;;;;;;;4937666;29;20211;-81
2021/12/28 02:17:56;;;;;;;19.43;14.87;;;;;;;;;;4937724;29;20199;-81
2021/12/28 02:20:25;;;;;;;18.20;15.00;;;;;;;;;;4937764;29;20289;-81
2021/12/28 02:22:52;;;;;;;19.37;15.60;;;;;;;;;;4937403;29;20682;-81
2021/12/28 02:25:20;;;;;;;19.37;14.47;;;;;;;;;;4937623;29;20293;-81
2021/12/28 02:27:48;;;;;;;17.70;14.30;;;;;;;;;;4937483;29;20293;-81
2021/12/28 02:30:18;;;;;;;18.40;14.67;;;;;;;;;;4937258;29;20636;-81
2021/12/28 02:32:46;;;;;;;20.53;15.93;;;;;;;;;;4937292;29;20278;-81
2021/12/28 02:35:15;;;;;;;29.30;17.40;;;;;;;;;;4937564;29;20207;-81
2021/12/28 02:37:44;;;;;;;20.80;15.57;;;;;;;;;;4937157;29;20282;-81
2021/12/28 02:40:14;;;;;;;30.30;20.20;;;;;;;;;;4937121;29;20230;-81
2021/12/28 02:42:41;;;;;;;49.70;21.57;;;;;;;;;;4937061;29;20206;-81
2021/12/28 02:45:12;;;;;;;47.90;22.90;;;;;;;;;;4937268;29;20198;-81
2021/12/28 02:47:41;;;;;;;35.10;19.20;;;;;;;;;;4936905;29;20198;-81
2021/12/28 02:50:11;;;;;;;34.20;19.03;;;;;;;;;;4936881;29;20246;-81
2021/12/28 02:52:39;;;;;;;26.60;18.33;;;;;;;;;;4936838;29;20233;-81
2021/12/28 02:55:11;;;;;;;26.33;17.57;;;;;;;;;;4937376;29;20217;-81
2021/12/28 02:57:38;;;;;;;22.27;16.87;;;;;;;;;;4937127;29;20195;-81
2021/12/28 03:00:07;;;;;;;20.13;14.67;;;;;;;;;;4937003;29;20206;-82
2021/12/28 03:02:34;;;;;;;24.00;13.70;;;;;;;;;;4936650;29;20740;-82
2021/12/28 03:05:02;;;;;;;46.10;17.03;;;;;;;;;;4936919;29;20203;-81
2021/12/28 03:07:30;;;;;;;30.47;17.43;;;;;;;;;;4936967;29;20203;-81
2021/12/28 03:09:58;;;;;;;23.03;14.53;;;;;;;;;;4936562;29;20203;-81
2021/12/28 03:12:27;;;;;;;44.73;18.57;;;;;;;;;;4936612;29;20266;-81
2021/12/28 03:14:54;;;;;;;16.43;13.50;;;;;;;;;;4936618;29;20210;-81
2021/12/28 03:17:21;;;;;;;18.90;13.00;;;;;;;;;;4936470;29;20207;-81
2021/12/28 03:19:48;;;;;;;19.93;13.33;;;;;;;;;;4936431;29;20209;-81
2021/12/28 03:22:16;;;;;;;30.07;15.30;;;;;;;;;;4936140;29;20715;-81
2021/12/28 03:24:43;;;;;;;31.20;16.33;;;;;;;;;;4936264;29;20634;-81
2021/12/28 03:27:10;;;;;;;41.93;15.87;;;;;;;;;;4936769;29;20203;-81
2021/12/28 03:29:39;;;;;;;61.80;20.37;;;;;;;;;;4936485;29;20206;-81
2021/12/28 03:32:07;;;;;;;33.53;16.37;;;;;;;;;;4936517;29;20317;-81
2021/12/28 03:34:34;;;;;;;39.73;11.10;;;;;;;;;;4936641;29;20202;-81
2021/12/28 03:37:01;;;;;;;57.77;12.00;;;;;;;;;;4936232;29;20758;-81
2021/12/28 03:39:29;;;;;;;25.87;9.27;;;;;;;;;;4936361;29;20672;-81
2021/12/28 03:41:56;;;;;;;26.13;10.43;;;;;;;;;;4936183;29;20668;-81
2021/12/28 03:44:23;;;;;;;22.13;9.60;;;;;;;;;;4936068;29;20234;-81
2021/12/28 03:46:52;;;;;;;22.70;8.93;;;;;;;;;;4936014;29;20238;-81
2021/12/28 03:49:19;;;;;;;29.13;11.13;;;;;;;;;;4936258;29;20206;-81
2021/12/28 03:51:47;;;;;;;34.20;11.27;;;;;;;;;;4936187;29;20248;-81
2021/12/28 03:54:14;;;;;;;39.80;12.27;;;;;;;;;;4935809;29;20711;-81
2021/12/28 03:56:41;;;;;;;50.67;11.50;;;;;;;;;;4935699;29;20265;-81
2021/12/28 03:59:09;;;;;;;23.50;8.40;;;;;;;;;;4935823;29;20254;-81
2021/12/28 04:01:37;;;;;;;9.00;7.00;;;;;;;;;;4935584;29;20203;-81
2021/12/28 04:04:06;;;;;;;19.17;12.80;;;;;;;;;;4935846;29;20707;-81
2021/12/28 04:06:34;;;;;;;21.97;13.43;;;;;;;;;;4935578;29;20207;-81
2021/12/28 04:09:03;;;;;;;16.73;9.43;;;;;;;;;;4935862;29;20205;-81
2021/12/28 04:11:31;;;;;;;11.13;9.60;;;;;;;;;;4936017;29;20294;-81
2021/12/28 04:14:02;;;;;;;21.07;10.20;;;;;;;;;;4935767;29;20234;-81
2021/12/28 04:16:30;;;;;;;12.27;9.30;;;;;;;;;;4935470;29;20246;-81
2021/12/28 04:18:58;;;;;;;9.70;8.60;;;;;;;;;;4935451;29;20203;-81
2021/12/28 04:21:27;;;;;;;12.63;8.40;;;;;;;;;;4935273;29;20198;-81
2021/12/28 04:23:54;;;;;;;9.83;8.47;;;;;;;;;;4935613;29;20269;-81
2021/12/28 04:26:22;;;;;;;10.23;8.23;;;;;;;;;;4935136;29;20227;-81
2021/12/28 04:28:49;;;;;;;9.83;8.53;;;;;;;;;;4935138;29;20237;-81
2021/12/28 04:31:16;;;;;;;22.43;9.83;;;;;;;;;;4935306;29;20719;-81
2021/12/28 04:33:44;;;;;;;12.63;9.60;;;;;;;;;;4935416;29;20379;-81
2021/12/28 04:36:14;;;;;;;18.47;10.20;;;;;;;;;;4935483;29;20195;-81
2021/12/28 04:38:45;;;;;;;15.87;10.57;;;;;;;;;;4935294;29;20605;-81
2021/12/28 04:41:13;;;;;;;15.37;9.97;;;;;;;;;;4935470;29;20230;-81
2021/12/28 04:43:40;;;;;;;11.80;8.60;;;;;;;;;;4935479;29;20209;-80
2021/12/28 04:46:07;;;;;;;9.43;8.33;;;;;;;;;;4935115;29;20237;-81
2021/12/28 04:48:35;;;;;;;10.37;8.40;;;;;;;;;;4934862;29;20211;-81
2021/12/28 04:51:02;;;;;;;11.67;8.50;;;;;;;;;;4935151;29;20234;-81
2021/12/28 04:53:30;;;;;;;21.43;16.27;;;;;;;;;;4934807;29;20719;-80
2021/12/28 04:55:59;;;;;;;19.73;13.23;;;;;;;;;;4934801;29;20202;-81
2021/12/28 04:58:26;;;;;;;43.03;23.67;;;;;;;;;;4934946;29;20203;-81
2021/12/28 05:00:54;;;;;;;53.77;26.93;;;;;;;;;;4935031;29;20202;-81
2021/12/28 05:03:22;;;;;;;23.07;15.07;;;;;;;;;;4934720;29;20254;-81
2021/12/28 05:05:51;;;;;;;15.30;12.13;;;;;;;;;;4934881;29;20226;-81
2021/12/28 05:08:20;;;;;;;13.37;10.53;;;;;;;;;;4934704;29;20203;-81
2021/12/28 05:10:48;;;;;;;19.60;14.63;;;;;;;;;;4934958;29;20198;-81
2021/12/28 05:13:17;;;;;;;23.50;16.50;;;;;;;;;;4934557;29;20281;-81
2021/12/28 05:15:45;;;;;;;18.03;12.90;;;;;;;;;;4935336;29;20234;-81
2021/12/28 05:18:14;;;;;;;22.77;18.00;;;;;;;;;;4935035;29;20686;-80
2021/12/28 05:20:42;;;;;;;18.60;13.63;;;;;;;;;;4934691;29;20261;-81
2021/12/28 05:23:09;;;;;;;25.03;14.70;;;;;;;;;;4934457;29;20319;-80
2021/12/28 05:25:36;;;;;;;28.67;16.97;;;;;;;;;;4934549;29;20206;-80
2021/12/28 05:28:04;;;;;;;19.27;15.03;;;;;;;;;;4934651;29;20567;-80
2021/12/28 05:30:34;;;;;;;31.57;15.90;;;;;;;;;;4934935;29;20207;-81
2021/12/28 05:33:01;;;;;;;23.57;16.47;;;;;;;;;;4934762;29;20258;-81
2021/12/28 05:35:29;;;;;;;20.73;14.83;;;;;;;;;;4934844;29;20662;-81
2021/12/28 05:37:56;;;;;;;18.83;14.83;;;;;;;;;;4934672;29;20226;-83
2021/12/28 05:40:24;;;;;;;25.83;17.97;;;;;;;;;;4934440;29;20293;-82
2021/12/28 05:42:51;;;;;;;24.73;17.60;;;;;;;;;;4934428;29;20206;-84
2021/12/28 05:45:19;;;;;;;25.27;15.63;;;;;;;;;;4934589;29;20278;-82
2021/12/28 05:47:47;;;;;;;14.00;9.40;;;;;;;;;;4934515;29;20211;-82
2021/12/28 05:50:15;;;;;;;15.00;7.10;;;;;;;;;;4938178;29;20210;-81
2021/12/28 05:52:42;;;;;;;8.53;7.07;;;;;;;;;;4937954;29;20297;-83
2021/12/28 05:55:10;;;;;;;7.93;6.73;;;;;;;;;;4938084;29;20203;-84
2021/12/28 05:57:37;;;;;;;39.03;8.53;;;;;;;;;;4938169;29;20297;-83
2021/12/28 06:00:07;;;;;;;10.27;6.50;;;;;;;;;;4937988;29;20213;-81
2021/12/28 06:02:34;;;;;;;12.30;6.33;;;;;;;;;;4938426;29;20234;-81
2021/12/28 06:05:03;;;;;;;13.33;7.47;;;;;;;;;;4938135;29;20241;-81
2021/12/28 06:07:30;;;;;;;7.83;6.57;;;;;;;;;;4934363;29;20213;-83
2021/12/28 06:09:58;;;;;;;9.70;7.00;;;;;;;;;;4937408;29;20199;-82
2021/12/28 06:12:25;;;;;;;12.93;6.47;;;;;;;;;;4942468;29;20320;-82
2021/12/28 06:14:53;;;;;;;19.37;10.70;;;;;;;;;;4956482;29;20678;-83
2021/12/28 06:17:21;;;;;;;21.37;8.47;;;;;;;;;;4956738;29;20264;-83
2021/12/28 06:19:49;;;;;;;28.63;9.30;;;;;;;;;;4956375;29;20261;-82
2021/12/28 06:22:17;;;;;;;18.63;11.57;;;;;;;;;;4956299;29;20657;-81
2021/12/28 06:24:45;;;;;;;10.77;8.57;;;;;;;;;;4956810;29;20284;-82
2021/12/28 06:27:12;;;;;;;15.20;10.27;;;;;;;;;;4956332;29;20201;-81
2021/12/28 06:29:39;;;;;;;10.23;7.50;;;;;;;;;;4956506;28;20211;-81
2021/12/28 06:32:07;;;;;;;16.00;8.70;;;;;;;;;;4956288;29;20281;-81
2021/12/28 06:34:35;;;;;;;31.53;11.13;;;;;;;;;;4956612;29;20206;-81
2021/12/28 06:37:03;;;;;;;14.33;10.17;;;;;;;;;;4956263;29;20204;-81
2021/12/28 06:39:32;;;;;;;12.43;8.90;;;;;;;;;;4956379;29;20359;-81
2021/12/28 06:41:59;;;;;;;28.67;17.77;;;;;;;;;;4956052;28;20205;-81
2021/12/28 06:44:26;;;;;;;21.93;13.13;;;;;;;;;;4956389;29;20202;-81
2021/12/28 06:46:53;;;;;;;31.80;19.13;;;;;;;;;;4951638;29;20238;-81
2021/12/28 06:49:21;;;;;;;29.43;15.93;;;;;;;;;;4932624;29;20222;-82
2021/12/28 06:51:48;;;;;;;16.33;13.10;;;;;;;;;;4936516;29;20242;-81
2021/12/28 06:54:16;;;;;;;35.70;29.57;;;;;;;;;;4928991;29;20570;-82
2021/12/28 06:56:45;;;;;;;31.43;25.47;;;;;;;;;;4927992;29;20211;-81
2021/12/28 06:59:12;;;;;;;27.37;20.47;;;;;;;;;;4927048;29;20210;-81
2021/12/28 07:01:39;;;;;;;17.47;15.63;;;;;;;;;;4918254;29;20278;-81
2021/12/28 07:04:07;;;;;;;111.83;99.93;;;;;;;;;;4918082;29;20270;-81
2021/12/28 07:06:34;;;;;;;32.87;29.37;;;;;;;;;;4922197;29;20198;-81
2021/12/28 07:09:01;;;;;;;13.80;12.50;;;;;;;;;;4925893;29;20270;-81
2021/12/28 07:11:29;;;;;;;13.33;11.50;;;;;;;;;;4927070;29;20230;-81
2021/12/28 07:13:58;;;;;;;31.07;22.50;;;;;;;;;;4925960;29;20290;-82
2021/12/28 07:16:25;;;;;;;61.13;49.03;;;;;;;;;;4928252;29;20597;-82
2021/12/28 07:18:52;;;;;;;52.93;38.90;;;;;;;;;;4917517;29;20203;-82
2021/12/28 07:21:19;;;;;;;39.50;29.97;;;;;;;;;;4917334;29;20203;-81
2021/12/28 07:23:47;;;;;;;36.37;30.83;;;;;;;;;;4928703;29;20214;-82
2021/12/28 07:26:14;;;;;;;37.00;31.00;;;;;;;;;;4936280;29;20281;-82
2021/12/28 07:28:41;;;;;;;38.33;30.93;;;;;;;;;;4936191;29;20202;-82
2021/12/28 07:31:10;;;;;;;56.80;49.83;;;;;;;;;;4936182;29;20206;-82
2021/12/28 07:33:37;;;;;;;34.97;19.97;;;;;;;;;;4935981;29;20281;-81
2021/12/28 07:36:05;;;;;;;38.97;25.27;;;;;;;;;;4936004;29;20582;-82
2021/12/28 07:38:32;;;;;;;30.87;22.10;;;;;;;;;;4936358;29;20269;-81
2021/12/28 07:41:00;;;;;;;22.20;17.70;;;;;;;;;;4935841;29;20206;-82
2021/12/28 07:43:27;;;;;;;18.20;16.30;;;;;;;;;;4917551;29;20270;-82
2021/12/28 07:45:54;;;;;;;18.50;15.90;;;;;;;;;;4917087;29;20207;-82
2021/12/28 07:48:23;;;;;;;19.50;17.40;;;;;;;;;;4917066;29;20199;-82
2021/12/28 07:50:50;;;;;;;18.83;15.83;;;;;;;;;;4916999;29;20255;-82
2021/12/28 07:53:17;;;;;;;19.60;17.00;;;;;;;;;;4916699;29;20321;-82
2021/12/28 07:55:45;;;;;;;30.83;22.93;;;;;;;;;;4916642;29;20748;-82
2021/12/28 07:58:12;;;;;;;18.43;15.33;;;;;;;;;;4915626;29;20200;-81
2021/12/28 08:00:40;;;;;;;16.23;14.53;;;;;;;;;;4916502;29;20242;-82
2021/12/28 08:03:07;;;;;;;19.57;14.63;;;;;;;;;;4916697;29;20199;-82
2021/12/28 08:05:38;;;;;;;20.67;18.10;;;;;;;;;;4916673;29;20685;-82
2021/12/28 08:08:06;;;;;;;34.40;24.93;;;;;;;;;;4916528;29;20227;-82
2021/12/28 08:10:33;;;;;;;36.63;27.20;;;;;;;;;;4916343;29;20282;-82
2021/12/28 08:13:00;;;;;;;37.53;24.97;;;;;;;;;;4916395;29;20227;-82
2021/12/28 08:15:29;;;;;;;27.67;20.07;;;;;;;;;;4916459;29;20580;-82
2021/12/28 08:17:56;;;;;;;42.87;23.63;;;;;;;;;;4916405;29;20246;-82
2021/12/28 08:20:23;;;;;;;27.90;22.87;;;;;;;;;;4916397;29;20203;-82
2021/12/28 08:22:52;;;;;;;55.17;28.23;;;;;;;;;;4916290;29;20302;-82
2021/12/28 08:25:20;;;;;;;27.60;22.90;;;;;;;;;;4916324;29;20235;-81
2021/12/28 08:27:48;;;;;;;17.50;13.10;;;;;;;;;;4916552;29;20287;-82
2021/12/28 08:30:15;;;;;;;15.37;13.60;;;;;;;;;;4916295;29;20711;-82
2021/12/28 08:32:43;;;;;;;37.87;21.53;;;;;;;;;;4916602;29;20314;-82
2021/12/28 08:35:11;;;;;;;63.73;46.00;;;;;;;;;;4916554;29;20231;-82
2021/12/28 08:37:38;;;;;;;51.03;40.40;;;;;;;;;;4915993;29;20203;-82
2021/12/28 08:40:09;;;;;;;51.80;41.10;;;;;;;;;;4916376;29;20266;-82
2021/12/28 08:42:37;;;;;;;43.03;37.33;;;;;;;;;;4916064;29;20231;-81
2021/12/28 08:45:05;;;;;;;54.70;40.10;;;;;;;;;;4916315;29;20259;-82
2021/12/28 08:47:32;;;;;;;80.47;54.53;;;;;;;;;;4916191;29;20639;-81
2021/12/28 08:50:00;;;;;;;41.27;32.10;;;;;;;;;;4916090;29;20211;-81
2021/12/28 08:52:27;;;;;;;54.87;45.80;;;;;;;;;;4915767;29;20258;-82
2021/12/28 08:54:54;;;;;;;112.80;91.03;;;;;;;;;;4915828;29;20215;-82
2021/12/28 08:57:23;;;;;;;101.23;77.50;;;;;;;;;;4916051;29;20737;-82
2021/12/28 08:59:50;;;;;;;49.40;36.70;;;;;;;;;;4916088;29;20262;-82
2021/12/28 09:02:18;;;;;;;23.03;18.60;;;;;;;;;;4916139;29;20625;-82
2021/12/28 09:04:46;;;;;;;20.67;17.53;;;;;;;;;;4915754;29;20632;-82
2021/12/28 09:07:13;;;;;;;19.27;14.70;;;;;;;;;;4916006;29;20207;-82
2021/12/28 09:09:41;;;;;;;13.40;11.50;;;;;;;;;;4915770;29;20260;-82
2021/12/28 09:12:09;;;;;;;21.93;19.50;;;;;;;;;;4915945;29;20203;-82
2021/12/28 09:14:39;;;;;;;13.60;11.73;;;;;;;;;;4915594;29;20227;-82
2021/12/28 09:17:07;;;;;;;11.77;10.60;;;;;;;;;;4915706;29;20203;-82
2021/12/28 09:19:34;;;;;;;31.13;22.47;;;;;;;;;;4915691;29;20262;-82
2021/12/28 09:22:01;;;;;;;16.90;14.23;;;;;;;;;;4917449;29;20243;-82
2021/12/28 09:24:29;;;;;;;13.83;11.43;;;;;;;;;;4919510;29;20200;-82
2021/12/28 09:26:56;;;;;;;16.80;13.73;;;;;;;;;;4919292;29;20201;-82
2021/12/28 09:29:25;;;;;;;11.97;10.43;;;;;;;;;;4919470;29;20262;-83
2021/12/28 09:31:54;;;;;;;11.33;9.27;;;;;;;;;;4919369;29;20236;-82
2021/12/28 09:34:22;;;;;;;12.83;8.60;;;;;;;;;;4919204;29;20231;-82
2021/12/28 09:36:49;;;;;;;10.93;9.87;;;;;;;;;;4919551;29;20199;-82
2021/12/28 09:39:22;;;;;;;12.73;9.87;;;;;;;;;;4919172;29;20300;-83
2021/12/28 09:41:52;;;;;;;12.20;9.73;;;;;;;;;;4919244;29;20607;-82
2021/12/28 09:44:19;;;;;;;8.07;7.27;;;;;;;;;;4919154;29;20196;-82
2021/12/28 09:46:46;;;;;;;10.83;8.30;;;;;;;;;;4919046;29;20237;-82
2021/12/28 09:49:15;;;;;;;8.13;7.33;;;;;;;;;;4919082;29;20195;-82
2021/12/28 09:51:42;;;;;;;8.30;7.43;;;;;;;;;;4918926;29;20753;-82
2021/12/28 09:54:10;;;;;;;9.53;7.50;;;;;;;;;;4919171;29;20272;-83
2021/12/28 09:56:37;;;;;;;8.87;8.00;;;;;;;;;;4918860;29;20234;-82
2021/12/28 09:59:05;;;;;;;9.73;7.60;;;;;;;;;;4918875;29;20219;-83
2021/12/28 10:01:33;;;;;;;10.73;9.83;;;;;;;;;;4918994;29;20204;-82
2021/12/28 10:04:01;;;;;;;10.33;9.27;;;;;;;;;;4919033;29;20238;-82
2021/12/28 10:06:30;;;;;;;9.40;8.40;;;;;;;;;;4919051;29;20207;-82
2021/12/28 10:09:09;;;;;;;12.40;11.10;;;;;;;;;;4918946;29;20213;-82
2021/12/28 10:11:38;;;;;;;9.73;8.77;;;;;;;;;;4918711;29;20207;-82
2021/12/28 10:14:14;;;;;;;12.33;11.03;;;;;;;;;;4918818;29;20223;-82
2021/12/28 10:16:47;;;;;;;13.67;11.77;;;;;;;;;;4918561;29;20688;-82
2021/12/28 10:19:31;;;;;;;12.07;10.83;;;;;;;;;;4918625;29;20258;-82
2021/12/28 10:22:24;;;;;;;12.50;11.20;;;;;;;;;;4918445;29;20301;-82
2021/12/28 10:24:52;;;;;;;13.57;11.63;;;;;;;;;;4918543;29;20222;-82
2021/12/28 10:27:22;;;;;;;12.60;9.93;;;;;;;;;;4918329;29;20234;-82
2021/12/28 10:29:49;;;;;;;13.17;8.53;;;;;;;;;;4918487;29;20243;-82
2021/12/28 10:32:22;;;;;;;9.73;8.73;;;;;;;;;;4918429;29;20586;-82
2021/12/28 10:34:52;;;;;;;10.77;9.07;;;;;;;;;;4918538;29;20222;-82
2021/12/28 10:37:23;;;;;;;17.00;7.93;;;;;;;;;;4918179;29;20200;-83
2021/12/28 10:39:54;;;;;;;11.03;8.77;;;;;;;;;;4918288;29;20665;-83
2021/12/28 10:42:41;;;;;;;8.17;7.23;;;;;;;;;;4918160;29;20283;-82
2021/12/28 10:45:11;;;;;;;10.73;9.07;;;;;;;;;;4918028;29;20200;-82
2021/12/28 10:47:39;;;;;;;13.70;11.97;;;;;;;;;;4918631;29;20623;-83
2021/12/28 10:50:27;;;;;;;12.60;10.73;;;;;;;;;;4918124;29;20235;-83
2021/12/28 10:53:14;;;;;;;17.13;11.83;;;;;;;;;;4917947;29;20259;-83
2021/12/28 10:55:43;;;;;;;18.43;14.50;;;;;;;;;;4917637;29;20214;-82
2021/12/28 10:58:12;;;;;;;15.80;12.70;;;;;;;;;;4917873;29;20235;-83
2021/12/28 11:00:42;;;;;;;20.60;14.13;;;;;;;;;;4918401;29;20262;-83
2021/12/28 11:03:26;;;;;;;17.43;14.43;;;;;;;;;;4918363;29;20211;-83
2021/12/28 11:05:54;;;;;;;24.53;18.00;;;;;;;;;;4918107;29;20192;-83
2021/12/28 11:08:25;;;;;;;20.07;16.17;;;;;;;;;;4918112;29;20258;-83
2021/12/28 11:10:55;;;;;;;23.77;17.13;;;;;;;;;;4918353;29;20336;-82
2021/12/28 11:13:24;;;;;;;19.97;17.93;;;;;;;;;;4917907;29;20261;-82
2021/12/28 11:15:51;;;;;;;20.00;17.90;;;;;;;;;;4917398;29;20209;-82
2021/12/28 11:18:21;;;;;;;61.33;43.00;;;;;;;;;;4917215;29;20215;-82
2021/12/28 11:20:48;;;;;;;26.53;20.60;;;;;;;;;;4921755;29;20716;-82
2021/12/28 11:23:18;;;;;;;46.07;35.37;;;;;;;;;;4930246;29;20296;-82
2021/12/28 11:25:47;;;;;;;33.73;27.60;;;;;;;;;;4936372;29;20210;-83
2021/12/28 11:28:22;;;;;;;28.23;23.43;;;;;;;;;;4924448;28;20693;-83
2021/12/28 11:31:09;;;;;;;18.83;14.00;;;;;;;;;;4936621;29;20201;-83
2021/12/28 11:33:47;;;;;;;18.20;15.93;;;;;;;;;;4936208;29;20213;-82
2021/12/28 11:36:15;;;;;;;16.00;13.13;;;;;;;;;;4936580;29;20266;-82
2021/12/28 11:38:43;;;;;;;17.50;14.27;;;;;;;;;;4936325;29;20583;-84
2021/12/28 11:41:12;;;;;;;19.87;17.23;;;;;;;;;;4936296;29;20739;-83
2021/12/28 11:43:41;;;;;;;26.43;21.80;;;;;;;;;;4935615;29;20203;-83
2021/12/28 11:46:08;;;;;;;18.70;15.13;;;;;;;;;;4927439;29;20675;-83
2021/12/28 11:48:36;;;;;;;23.20;19.50;;;;;;;;;;4917018;29;20203;-84
2021/12/28 11:51:04;;;;;;;24.50;16.40;;;;;;;;;;4917549;29;20211;-84
2021/12/28 11:53:31;;;;;;;15.93;14.00;;;;;;;;;;4917079;29;20206;-84
2021/12/28 11:56:00;;;;;;;19.03;15.37;;;;;;;;;;4916999;29;20203;-83
2021/12/28 11:59:06;;;;;;;29.50;22.70;;;;;;;;;;4916790;29;20231;-83
2021/12/28 12:02:00;;;;;;;35.70;30.70;;;;;;;;;;4910886;29;20208;-84
2021/12/28 12:04:56;;;;;;;21.77;19.40;;;;;;;;;;4898890;29;20203;-84
2021/12/28 12:07:31;;;;;;;22.33;17.97;;;;;;;;;;4916636;29;20197;-83
2021/12/28 12:10:30;;;;;;;24.00;21.57;;;;;;;;;;4916678;29;20191;-84
2021/12/28 12:13:22;;;;;;;27.13;21.80;;;;;;;;;;4916937;29;20198;-83
2021/12/28 12:15:53;;;;;;;19.10;17.07;;;;;;;;;;4916589;29;20266;-83
2021/12/28 12:18:25;;;;;;;24.10;16.67;;;;;;;;;;4918680;29;20188;-83
2021/12/28 12:20:56;;;;;;;13.83;11.80;;;;;;;;;;4935459;29;20253;-84
2021/12/28 12:23:26;;;;;;;16.07;12.27;;;;;;;;;;4935618;29;20685;-84
2021/12/28 12:25:58;;;;;;;23.90;19.23;;;;;;;;;;4935555;29;20735;-84
2021/12/28 12:28:48;;;;;;;25.37;19.37;;;;;;;;;;4935371;29;20187;-84
2021/12/28 12:31:28;;;;;;;25.93;19.60;;;;;;;;;;4914793;29;20219;-84
2021/12/28 12:33:57;;;;;;;26.97;19.73;;;;;;;;;;4916443;29;20210;-84
2021/12/28 12:36:32;;;;;;;31.23;21.00;;;;;;;;;;4916653;29;20232;-83
2021/12/28 12:39:00;;;;;;;27.07;23.40;;;;;;;;;;4916208;29;20203;-83
2021/12/28 12:41:40;;;;;;;21.63;18.43;;;;;;;;;;4916663;29;20231;-83
2021/12/28 12:44:13;;;;;;;23.37;17.80;;;;;;;;;;4916583;29;20572;-83
2021/12/28 12:46:43;;;;;;;26.83;19.80;;;;;;;;;;4916533;29;20326;-83
2021/12/28 12:49:23;;;;;;;25.93;20.53;;;;;;;;;;4917446;29;20583;-83
2021/12/28 12:51:53;;;;;;;35.33;28.03;;;;;;;;;;4935442;29;20634;-83
2021/12/28 12:54:27;;;;;;;22.87;19.57;;;;;;;;;;4935154;29;20233;-84
2021/12/28 12:57:09;;;;;;;25.83;21.10;;;;;;;;;;4934063;29;20224;-83
2021/12/28 12:59:48;;;;;;;32.00;25.13;;;;;;;;;;4934988;29;20273;-83
2021/12/28 13:02:28;;;;;;;109.13;69.70;;;;;;;;;;4927746;29;20297;-84
2021/12/28 13:04:59;;;;;;;215.27;117.40;;;;;;;;;;4934695;29;20249;-83
2021/12/28 13:07:29;;;;;;;165.97;85.33;;;;;;;;;;4935154;29;20190;-84
2021/12/28 13:10:04;;;;;;;47.03;26.83;;;;;;;;;;4934633;29;20207;-83
2021/12/28 13:12:33;;;;;;;68.47;39.00;;;;;;;;;;4933497;29;20194;-83
2021/12/28 13:15:02;;;;;;;37.73;23.53;;;;;;;;;;4933566;29;20610;-83
2021/12/28 13:17:35;;;;;;;30.57;23.73;;;;;;;;;;4933581;29;20591;-83
2021/12/28 13:20:09;;;;;;;30.00;21.60;;;;;;;;;;4933869;29;20191;-83
2021/12/28 13:22:38;;;;;;;71.90;51.53;;;;;;;;;;4933756;29;20617;-83
2021/12/28 13:25:09;;;;;;;35.23;29.47;;;;;;;;;;4933098;29;20200;-83
2021/12/28 13:27:38;;;;;;;27.73;24.20;;;;;;;;;;4934208;29;20187;-84
2021/12/28 13:30:10;;;;;;;42.57;29.43;;;;;;;;;;4932201;29;20622;-84
2021/12/28 13:32:38;;;;;;;39.60;30.67;;;;;;;;;;4934188;29;20226;-84
2021/12/28 13:35:11;;;;;;;45.90;32.03;;;;;;;;;;4934341;29;20230;-84
2021/12/28 13:37:41;;;;;;;41.47;29.33;;;;;;;;;;4934292;29;20198;-83
2021/12/28 13:40:13;;;;;;;26.97;22.20;;;;;;;;;;4934420;29;20578;-82
2021/12/28 13:42:43;;;;;;;26.70;23.90;;;;;;;;;;4934376;29;20783;-83
2021/12/28 13:45:11;;;;;;;27.43;20.57;;;;;;;;;;4934308;29;20241;-82
2021/12/28 13:47:41;;;;;;;20.37;17.70;;;;;;;;;;4934276;29;20208;-82
2021/12/28 13:50:13;;;;;;;19.33;15.87;;;;;;;;;;4934696;29;20194;-83
2021/12/28 13:52:45;;;;;;;19.83;16.63;;;;;;;;;;4934734;29;20187;-82
2021/12/28 13:55:13;;;;;;;21.30;17.73;;;;;;;;;;4934444;29;20206;-82
2021/12/28 13:57:41;;;;;;;29.10;24.17;;;;;;;;;;4934397;29;20233;-83
2021/12/28 14:00:11;;;;;;;27.80;20.87;;;;;;;;;;4934522;29;20238;-83
2021/12/28 14:02:40;;;;;;;23.37;19.13;;;;;;;;;;4934810;29;20618;-82
2021/12/28 14:05:10;;;;;;;20.37;16.80;;;;;;;;;;4934182;29;20203;-83
2021/12/28 14:07:38;;;;;;;22.30;19.23;;;;;;;;;;4935451;29;20195;-83
2021/12/28 14:10:07;;;;;;;26.17;23.40;;;;;;;;;;4937996;29;20241;-82
2021/12/28 14:12:34;;;;;;;25.70;22.97;;;;;;;;;;4937423;29;20245;-83
2021/12/28 14:15:01;;;;;;;23.97;17.57;;;;;;;;;;4933538;29;20601;-82
2021/12/28 14:17:29;;;;;;;23.60;19.80;;;;;;;;;;4937565;29;20210;-82
2021/12/28 14:19:59;;;;;;;35.00;28.83;;;;;;;;;;4937679;29;20206;-82
2021/12/28 14:22:29;;;;;;;34.40;28.93;;;;;;;;;;4929410;29;20238;-82
2021/12/28 14:24:57;;;;;;;31.97;24.53;;;;;;;;;;4926754;29;20208;-82
2021/12/28 14:27:27;;;;;;;20.67;18.13;;;;;;;;;;4918208;29;20246;-82
2021/12/28 14:30:07;;;;;;;35.47;29.80;;;;;;;;;;4918307;29;20210;-82
2021/12/28 14:32:36;;;;;;;57.93;46.67;;;;;;;;;;4918325;29;20223;-82